»·PEaware :: WAT169 KLAS-KSNA

WAT169 :: KLAS-KSNA

FLIGHT INFORMATION

Flight Status: Arrived
Operator: Unknown
More flights by this operator :: More flights under this callsign
Pilot: Marty P. (27464)
Aircraft: BOMBARDIER BD-100 CHALLENGER 300
(CL30)
More flights by this aircraft type
Origin: KLAS McCarran Intl
United States
Destination: KSNA John Wayne-Orange Co
United States
More flights between these airports :: More routes between these airports
Route: BOACH8 WHIGG FEYLA DSNEE4
File this flight plan on PilotEdge
Remarks:
Altitude:
(Current/Filed)
28,000ft
Speed:
(Current/Filed)
470kts
Departed: 21-Mar-20 09:48 PM
Arrived: 21-Mar-20 10:33 PM
Distance/Time
Traveled:
197nm/0:45
Distance/Time
To Go:
Arrived

Flight Plot

Page will automatically refresh every two minutes.

Flight plan parsing failed; only flown route is shown


Map Options




Map Legend


Flown Route
Filed Route
Departure Airport
Arrival Airport
Navaid (VOR, NDB)
Fix

Horizontal Profiles

Position Reports

Time Latitude Longitude Heading Altitude Ground
Speed
21-Mar-20 21:09 36.081680 -115.147938 63 2187ft 0kts
21-Mar-20 21:10 36.081680 -115.147938 63 2187ft 0kts
21-Mar-20 21:11 36.081680 -115.147938 63 2187ft 0kts
21-Mar-20 21:12 36.081680 -115.147938 63 2187ft 0kts
21-Mar-20 21:13 36.081680 -115.147938 63 2187ft 0kts
21-Mar-20 21:14 36.081680 -115.147938 63 2187ft 0kts
21-Mar-20 21:15 36.081680 -115.147938 63 2187ft 0kts
21-Mar-20 21:16 36.081680 -115.147938 63 2187ft 0kts
21-Mar-20 21:17 36.081680 -115.147938 63 2187ft 0kts
21-Mar-20 21:18 36.081680 -115.147938 63 2187ft 0kts
21-Mar-20 21:19 36.081680 -115.147938 63 2187ft 0kts
21-Mar-20 21:20 36.081680 -115.147938 63 2187ft 0kts
21-Mar-20 21:21 36.081680 -115.147938 63 2187ft 0kts
21-Mar-20 21:22 36.081680 -115.147938 63 2187ft 0kts
21-Mar-20 21:23 36.081680 -115.147938 63 2187ft 0kts
21-Mar-20 21:24 36.081680 -115.147938 63 2187ft 0kts
21-Mar-20 21:25 36.081680 -115.147938 63 2187ft 0kts
21-Mar-20 21:26 36.081680 -115.147938 63 2187ft 0kts
21-Mar-20 21:27 36.081680 -115.147938 63 2187ft 0kts
21-Mar-20 21:28 36.081680 -115.147938 63 2187ft 0kts
21-Mar-20 21:29 36.081680 -115.147938 63 2187ft 0kts
21-Mar-20 21:30 36.081680 -115.147938 63 2187ft 0kts
21-Mar-20 21:31 36.081638 -115.148040 63 2188ft 2kts
21-Mar-20 21:32 36.081494 -115.148725 129 2188ft 2kts
21-Mar-20 21:33 36.081592 -115.148813 156 2187ft 0kts
21-Mar-20 21:34 36.081592 -115.148813 156 2187ft 0kts
21-Mar-20 21:35 36.081568 -115.148800 155 2187ft 0kts
21-Mar-20 21:36 36.081513 -115.148770 162 2187ft 0kts
21-Mar-20 21:37 36.079266 -115.148221 166 2187ft 16kts
21-Mar-20 21:38 36.078655 -115.148481 253 2187ft 0kts
21-Mar-20 21:39 36.079256 -115.149117 308 2187ft 0kts
21-Mar-20 21:40 36.078776 -115.152892 276 2187ft 17kts
21-Mar-20 21:41 36.084296 -115.156515 335 2187ft 16kts
21-Mar-20 21:42 36.085438 -115.156507 248 2188ft 12kts
21-Mar-20 21:43 36.088593 -115.156910 23 2187ft 18kts
21-Mar-20 21:44 36.093764 -115.154090 25 2187ft 20kts
21-Mar-20 21:45 36.098029 -115.152541 292 2187ft 0kts
21-Mar-20 21:46 36.098017 -115.153881 199 2187ft 17kts
21-Mar-20 21:47 36.073198 -115.168145 205 2635ft 199kts
21-Mar-20 21:48 36.020767 -115.198278 213 4566ft 211kts
21-Mar-20 21:49 35.988900 -115.261598 241 6034ft 248kts
21-Mar-20 21:50 35.930694 -115.304886 188 7009ft 269kts
21-Mar-20 21:51 35.856977 -115.314065 176 9542ft 274kts
21-Mar-20 21:52 35.779909 -115.306018 178 13230ft 276kts
21-Mar-20 21:53 35.700019 -115.297094 180 14017ft 300kts
21-Mar-20 21:54 35.631784 -115.357797 228 14022ft 328kts
21-Mar-20 21:55 35.566527 -115.444762 228 14029ft 357kts
21-Mar-20 21:56 35.504188 -115.528242 230 17346ft 331kts
21-Mar-20 21:57 35.441686 -115.612566 231 19311ft 337kts
21-Mar-20 21:58 35.379436 -115.696268 233 22885ft 326kts
21-Mar-20 21:59 35.325474 -115.768731 236 26759ft 288kts
21-Mar-20 22:00 35.270657 -115.842435 236 28160ft 318kts
21-Mar-20 22:01 35.203998 -115.929878 233 28158ft 376kts
21-Mar-20 22:02 35.126970 -116.027012 232 28145ft 400kts
21-Mar-20 22:03 35.051188 -116.122236 233 28146ft 381kts
21-Mar-20 22:04 34.978476 -116.213463 233 28146ft 367kts
21-Mar-20 22:05 34.908075 -116.301571 233 28145ft 356kts
21-Mar-20 22:06 34.840792 -116.386796 233 27998ft 352kts
21-Mar-20 22:07 34.770871 -116.475801 232 25535ft 351kts
21-Mar-20 22:08 34.704887 -116.559578 232 25191ft 340kts
21-Mar-20 22:09 34.630914 -116.634511 226 25075ft 347kts
21-Mar-20 22:10 34.558626 -116.705963 225 23062ft 335kts
21-Mar-20 22:11 34.486761 -116.777895 229 20984ft 333kts
21-Mar-20 22:12 34.421351 -116.855095 227 18623ft 325kts
21-Mar-20 22:13 34.355861 -116.931277 226 16113ft 326kts
21-Mar-20 22:14 34.291081 -117.006002 225 13999ft 315kts
21-Mar-20 22:15 34.223795 -117.063565 213 13447ft 291kts
21-Mar-20 22:16 34.153515 -117.110835 206 12501ft 276kts
21-Mar-20 22:17 34.083295 -117.149173 206 12507ft 277kts
21-Mar-20 22:18 34.010802 -117.188501 209 12459ft 289kts
21-Mar-20 22:19 33.956744 -117.252514 228 10386ft 260kts
21-Mar-20 22:20 33.910874 -117.316388 228 8353ft 245kts
21-Mar-20 22:21 33.868754 -117.375754 228 7989ft 230kts
21-Mar-20 22:22 33.825871 -117.436247 228 7996ft 247kts
21-Mar-20 22:23 33.799193 -117.512358 267 7475ft 238kts
21-Mar-20 22:24 33.822099 -117.587384 291 6036ft 215kts
21-Mar-20 22:25 33.843507 -117.649400 291 4983ft 180kts
21-Mar-20 22:26 33.862190 -117.703152 290 3927ft 167kts
21-Mar-20 22:27 33.848437 -117.749293 230 2987ft 141kts
21-Mar-20 22:28 33.817680 -117.778561 208 3006ft 151kts
21-Mar-20 22:29 33.774811 -117.805815 207 2163ft 177kts
21-Mar-20 22:30 33.737464 -117.829599 205 1323ft 144kts
21-Mar-20 22:31 33.700691 -117.852961 205 512ft 146kts
21-Mar-20 22:32 33.670854 -117.871869 208 62ft 28kts
21-Mar-20 22:33 33.669261 -117.871761 131 62ft 4kts
21-Mar-20 22:34 33.670102 -117.869910 40 63ft 11kts
21-Mar-20 22:35 33.673645 -117.866760 27 63ft 18kts
21-Mar-20 22:36 33.675458 -117.865058 122 63ft 1kts
21-Mar-20 22:37 33.675347 -117.864821 119 63ft 0kts
21-Mar-20 22:38 33.675347 -117.864821 119 63ft 0kts
21-Mar-20 22:39 33.675347 -117.864821 119 63ft 0kts
21-Mar-20 22:40 33.675347 -117.864821 119 63ft 0kts
21-Mar-20 22:41 33.675347 -117.864821 119 63ft 0kts

Navigation Log

Ident Type
Flight plan parsing failed, navigation log unavailable